createdAt,value
2017-04-27T00:06:58.827Z,0
2017-04-27T00:14:52.189Z,0
2017-04-27T00:15:39.122Z,0
2017-04-27T00:16:29.802Z,0
2017-04-27T00:17:25.167Z,0
2017-04-27T00:18:18.558Z,0
2017-04-27T01:31:59.796Z,0
2017-04-27T01:32:48.880Z,0
2017-04-27T01:33:38.209Z,0
2017-04-27T01:34:26.782Z,0
2017-04-27T01:35:18.683Z,0
2017-04-27T01:36:07.324Z,0
2017-04-27T01:36:56.216Z,0
2017-04-27T01:37:49.172Z,0
2017-04-27T01:38:38.400Z,0
2017-04-27T01:45:17.614Z,0
2017-04-27T01:46:06.143Z,0
2017-04-27T01:46:55.388Z,0
2017-04-27T01:47:43.801Z,0
2017-04-27T01:48:32.079Z,0
2017-04-27T01:49:21.351Z,0
2017-04-27T01:50:09.535Z,0
2017-04-27T01:50:58.094Z,0
2017-04-27T01:51:46.515Z,0
2017-04-27T01:52:35.229Z,0
2017-04-27T01:53:31.688Z,0
2017-04-27T01:56:01.315Z,0
2017-04-27T02:02:06.081Z,0
2017-04-27T02:02:56.200Z,0
2017-04-27T02:03:47.169Z,0
2017-04-27T02:04:35.438Z,0
2017-04-27T02:05:25.799Z,0
2017-04-27T02:06:14.005Z,0
2017-04-27T02:07:03.464Z,0
2017-04-27T02:07:52.087Z,0
2017-04-27T02:08:40.594Z,0
2017-04-27T02:09:29.393Z,0
2017-04-27T02:10:18.374Z,0
2017-04-27T02:11:06.626Z,0
2017-04-27T02:11:55.151Z,0
2017-04-27T02:12:43.687Z,0
2017-04-27T02:13:32.131Z,0
2017-04-27T02:17:46.570Z,0
2017-04-27T02:18:35.663Z,0
2017-04-27T02:19:24.618Z,0
2017-04-27T02:20:13.314Z,0
2017-04-27T02:21:02.778Z,0
2017-04-27T02:21:52.175Z,0
2017-04-27T02:22:41.693Z,0
2017-04-27T02:23:30.085Z,0
2017-04-27T02:24:18.876Z,0
2017-04-27T02:25:08.278Z,0
2017-04-27T02:25:56.954Z,0
2017-04-27T02:26:45.976Z,0
2017-04-27T02:27:34.751Z,0
2017-04-27T02:28:24.128Z,0
2017-04-27T02:29:12.704Z,0
2017-04-27T02:30:01.338Z,0
2017-04-27T02:30:50.586Z,0
2017-04-27T02:33:36.062Z,0
2017-04-27T02:36:24.235Z,0
2017-04-27T02:37:16.683Z,0
2017-04-27T02:38:12.218Z,0
2017-04-27T02:39:08.606Z,0
2017-04-27T02:40:04.726Z,0
2017-04-27T02:40:58.673Z,0
2017-04-27T02:41:51.645Z,0
2017-04-27T02:42:46.376Z,0
2017-04-27T02:43:37.599Z,0
2017-04-27T02:44:32.658Z,0
2017-04-27T03:11:42.605Z,0
2017-04-27T03:12:31.425Z,0
2017-04-27T03:13:21.471Z,0
2017-04-27T03:16:10.989Z,0
2017-04-27T03:17:01.514Z,0
2017-04-27T03:18:01.988Z,0
2017-04-27T03:18:52.859Z,0
2017-04-27T03:19:41.633Z,0
2017-04-27T03:20:30.261Z,0
2017-04-27T03:21:18.469Z,0
2017-04-27T03:22:08.189Z,0
2017-04-27T03:22:56.074Z,0
2017-04-27T03:23:44.479Z,0
2017-04-27T03:41:23.529Z,0
2017-04-27T03:46:10.172Z,8
2017-04-27T03:46:58.322Z,4
2017-04-27T03:47:43.206Z,8
2017-04-27T03:48:32.545Z,8
2017-04-27T03:51:21.340Z,12
2017-04-27T03:53:47.617Z,16
2017-04-27T03:54:34.025Z,24
2017-04-27T03:55:15.508Z,20
2017-04-27T03:55:55.948Z,24
2017-04-27T03:56:36.386Z,24
2017-04-27T04:09:21.670Z,96
2017-04-27T04:10:10.568Z,104
2017-04-27T04:25:16.828Z,244
2017-04-27T04:26:05.683Z,252
2017-04-27T04:26:53.904Z,264
2017-04-27T04:27:42.989Z,268
2017-04-27T04:28:31.249Z,268
2017-04-27T04:29:20.214Z,276
2017-04-27T04:30:08.439Z,280
2017-04-27T04:30:57.311Z,288
2017-04-27T04:31:46.173Z,300
2017-04-27T04:32:34.516Z,312
2017-04-27T04:35:17.437Z,348
2017-04-27T04:36:05.843Z,356
2017-04-27T04:36:54.596Z,368
2017-04-27T04:37:43.252Z,384
2017-04-27T04:38:31.613Z,396
2017-04-27T04:39:20.900Z,404
2017-04-27T04:40:09.070Z,412
2017-04-27T04:40:59.429Z,420
2017-04-27T04:41:49.352Z,428
2017-04-27T04:42:37.973Z,436
2017-04-27T04:43:26.289Z,444
2017-04-27T04:44:15.001Z,460
2017-04-27T04:45:03.628Z,480
2017-04-27T04:45:52.426Z,492
2017-04-27T04:46:41.058Z,508
2017-04-27T04:47:29.787Z,512
2017-04-27T04:48:18.382Z,516
2017-04-27T04:49:07.111Z,532
2017-04-27T04:49:55.506Z,548
2017-04-27T04:53:53.467Z,628
2017-04-27T04:54:42.307Z,656
2017-04-27T04:55:30.489Z,684
2017-04-27T04:56:19.318Z,712
2017-04-27T04:57:08.224Z,740
2017-04-27T04:57:58.477Z,756
2017-04-27T04:58:48.447Z,768
2017-04-27T04:59:37.046Z,780
2017-04-27T05:00:25.203Z,784
2017-04-27T05:01:14.430Z,792
2017-04-27T05:02:03.294Z,820
2017-04-27T05:02:54.493Z,884
2017-04-27T05:03:44.213Z,960
2017-04-27T05:04:32.806Z,1032
2017-04-27T05:20:11.138Z,1832
2017-04-27T05:21:00.338Z,1868
2017-04-27T05:21:51.730Z,1904
2017-04-27T05:22:41.598Z,1944
2017-04-27T05:23:29.983Z,1988
2017-04-27T05:24:19.001Z,2024
2017-04-27T05:25:07.622Z,2072
2017-04-27T05:31:04.238Z,2212
2017-04-27T05:31:52.785Z,2248
2017-04-27T05:32:41.429Z,2308
2017-04-27T05:33:30.203Z,2376
2017-04-27T05:34:23.894Z,2464
2017-04-27T05:35:12.686Z,2548
2017-04-27T05:36:00.838Z,2644
2017-04-27T05:36:49.385Z,2756
2017-04-27T05:37:38.255Z,2896
2017-04-27T05:38:26.895Z,3052
2017-04-27T05:39:15.795Z,3204
2017-04-27T05:40:04.464Z,3352
2017-04-27T05:40:52.880Z,3488
2017-04-27T05:41:41.686Z,3604
2017-04-27T05:42:30.905Z,3684
2017-04-27T05:47:16.731Z,3732
2017-04-27T05:48:06.351Z,3680
2017-04-27T05:48:55.025Z,3660
2017-04-27T05:49:43.658Z,3672
2017-04-27T05:50:33.949Z,3760
2017-04-27T05:51:23.260Z,3952
2017-04-27T05:52:11.915Z,4220
2017-04-27T05:53:00.698Z,4516
2017-04-27T05:53:49.326Z,4792
2017-04-27T05:54:37.898Z,5008
2017-04-27T05:55:26.479Z,5148
2017-04-27T05:56:15.569Z,5248
2017-04-27T05:57:03.752Z,5352
2017-04-27T05:57:52.854Z,5460
2017-04-27T05:58:41.018Z,5588
2017-04-27T05:59:29.772Z,5772
2017-04-27T06:00:18.311Z,5856
2017-04-27T06:01:06.850Z,5796
2017-04-27T06:01:55.451Z,5716
2017-04-27T06:02:44.103Z,5668
2017-04-27T06:03:32.846Z,5640
2017-04-27T06:04:21.449Z,5684
2017-04-27T06:05:09.850Z,5744
2017-04-27T06:05:58.797Z,5864
2017-04-27T06:06:47.631Z,6000
2017-04-27T06:07:36.673Z,6088
2017-04-27T06:08:25.468Z,6104
2017-04-27T06:09:13.944Z,6140
2017-04-27T06:10:02.705Z,6192
2017-04-27T06:10:51.429Z,6260
2017-04-27T06:11:40.551Z,6340
2017-04-27T06:12:29.258Z,6400
2017-04-27T06:13:18.088Z,6248
2017-04-27T06:14:08.144Z,6076
2017-04-27T06:14:56.601Z,6084
2017-04-27T06:15:45.626Z,6440
2017-04-27T06:16:34.057Z,6820
2017-04-27T06:22:13.268Z,10292
2017-04-27T06:23:01.816Z,10088
2017-04-27T06:23:50.625Z,9904
2017-04-27T06:24:38.992Z,9516
2017-04-27T06:25:27.809Z,9096
2017-04-27T06:26:16.243Z,8852
2017-04-27T06:27:05.253Z,8752
2017-04-27T06:27:54.055Z,8664
2017-04-27T06:28:42.783Z,8276
2017-04-27T06:29:30.947Z,7744
2017-04-27T06:30:19.536Z,7232
2017-04-27T06:31:08.401Z,6772
2017-04-27T06:31:57.004Z,6324
2017-04-27T06:36:21.678Z,5660
2017-04-27T06:37:10.445Z,5700
2017-04-27T06:38:00.197Z,5624
2017-04-27T06:38:54.367Z,5792
2017-04-27T06:39:42.615Z,6044
2017-04-27T06:40:31.156Z,6428
2017-04-27T06:41:20.392Z,6800
2017-04-27T06:42:09.112Z,7016
2017-04-27T06:42:57.589Z,7064
2017-04-27T06:43:46.867Z,7164
2017-04-27T06:44:34.995Z,7292
2017-04-27T06:45:24.334Z,7396
2017-04-27T06:46:12.975Z,7544
2017-04-27T06:47:01.791Z,7780
2017-04-27T06:47:50.801Z,8080
2017-04-27T06:48:39.132Z,8576
2017-04-27T06:49:28.156Z,9364
2017-04-27T06:50:16.445Z,9828
2017-04-27T06:51:05.245Z,10676
2017-04-27T06:51:53.661Z,11104
2017-04-27T06:55:54.167Z,12716
2017-04-27T06:56:42.936Z,13204
2017-04-27T06:57:32.047Z,13664
2017-04-27T06:58:22.185Z,13908
2017-04-27T06:59:10.437Z,14336
2017-04-27T06:59:59.392Z,15312
2017-04-27T07:00:47.961Z,15548
2017-04-27T07:01:38.689Z,15640
2017-04-27T07:02:27.675Z,15524
2017-04-27T07:03:16.863Z,16704
2017-04-27T07:04:05.453Z,16736
2017-04-27T07:04:56.483Z,15988
2017-04-27T07:05:46.379Z,17248
2017-04-27T07:06:36.420Z,17440
2017-04-27T07:09:21.426Z,17440
2017-04-27T07:12:06.342Z,17376
2017-04-27T07:12:56.475Z,18560
2017-04-27T07:13:46.905Z,18880
2017-04-27T07:14:35.698Z,17952
2017-04-27T07:15:24.174Z,17280
2017-04-27T07:16:13.524Z,18144
2017-04-27T07:17:02.131Z,18176
2017-04-27T07:17:50.946Z,18144
2017-04-27T07:18:39.386Z,18144
2017-04-27T07:19:27.995Z,18816
2017-04-27T07:20:17.097Z,19968
2017-04-27T07:21:05.438Z,19488
2017-04-27T07:21:55.582Z,19200
2017-04-27T07:22:44.495Z,19584
2017-04-27T07:23:33.392Z,19872
2017-04-27T07:24:22.800Z,21472
2017-04-27T07:25:11.418Z,28384
2017-04-27T07:26:00.398Z,33664
2017-04-27T07:48:43.096Z,50624
2017-04-27T07:49:31.473Z,47712
2017-04-27T07:50:19.931Z,35712
2017-04-27T07:51:08.713Z,32256
2017-04-27T07:51:57.370Z,36064
2017-04-27T07:54:20.698Z,52256
2017-04-27T07:55:08.369Z,52160
2017-04-27T07:55:58.043Z,51936
2017-04-27T07:58:22.688Z,39296
2017-04-27T07:59:11.358Z,39392
2017-04-27T07:59:59.664Z,31072
2017-04-27T08:00:49.163Z,40000
2017-04-27T08:01:38.071Z,37952
2017-04-27T08:02:26.852Z,30560
2017-04-27T08:03:15.235Z,31584
2017-04-27T08:04:03.985Z,34336
2017-04-27T08:04:52.832Z,36768
2017-04-27T08:05:41.611Z,37248
2017-04-27T08:06:29.983Z,31712
2017-04-27T08:07:18.849Z,30240
2017-04-27T08:08:07.574Z,29344
2017-04-27T08:08:56.040Z,28320
2017-04-27T08:09:44.403Z,27552
2017-04-27T08:32:38.237Z,24320
2017-04-27T08:33:27.218Z,23424
2017-04-27T08:34:15.834Z,22976
2017-04-27T08:35:04.024Z,22496
2017-04-27T08:35:53.336Z,21664
2017-04-27T08:36:41.813Z,20512
2017-04-27T08:37:30.736Z,19936
2017-04-27T08:38:18.962Z,19520
2017-04-27T08:39:07.994Z,19168
2017-04-27T08:39:56.253Z,18944
2017-04-27T08:40:44.930Z,18496
2017-04-27T08:41:33.527Z,18368
2017-04-27T08:42:22.935Z,18464
2017-04-27T08:43:11.882Z,20928
2017-04-27T08:44:01.820Z,20960
2017-04-27T08:44:50.277Z,24384
2017-04-27T08:49:12.607Z,43232
2017-04-27T08:50:04.782Z,48512
2017-04-27T08:50:58.759Z,40832
2017-04-27T08:51:50.860Z,47264
2017-04-27T08:52:39.710Z,65888
2017-04-27T08:53:30.455Z,64576
2017-04-27T08:54:24.000Z,76704
2017-04-27T08:55:16.172Z,62848
2017-04-27T08:56:09.766Z,58080
2017-04-27T08:56:58.222Z,59968
2017-04-27T08:57:48.613Z,60352
2017-04-27T08:58:37.305Z,62496
2017-04-27T08:59:28.750Z,59232
2017-04-27T09:00:17.268Z,63744
2017-04-27T09:01:08.199Z,66784
2017-04-27T09:01:58.465Z,59168
2017-04-27T09:02:47.397Z,59072
2017-04-27T09:03:38.357Z,58528
2017-04-27T09:04:26.822Z,68032
2017-04-27T09:05:15.380Z,68608
2017-04-27T09:06:05.971Z,70784
2017-04-27T09:06:54.751Z,76416
2017-04-27T09:07:45.239Z,75296
2017-04-27T09:08:34.786Z,81248
2017-04-27T09:09:23.813Z,79104
2017-04-27T09:10:18.393Z,75776
2017-04-27T09:11:08.042Z,82304
2017-04-27T09:11:58.328Z,81760
2017-04-27T09:12:50.796Z,86432
2017-04-27T09:13:41.408Z,82752
2017-04-27T09:16:25.848Z,66240
2017-04-27T09:17:16.766Z,54656
2017-04-27T09:18:06.134Z,47232
2017-04-27T09:18:55.060Z,71968
2017-04-27T09:19:45.361Z,64864
2017-04-27T09:20:34.098Z,67840
2017-04-27T09:21:23.278Z,82752
2017-04-27T09:22:11.961Z,80064
2017-04-27T09:23:01.584Z,77728
2017-04-27T09:23:50.326Z,76800
2017-04-27T09:24:43.304Z,79744
2017-04-27T09:25:31.754Z,82592
2017-04-27T09:26:20.749Z,88992
2017-04-27T09:27:11.293Z,93152
2017-04-27T09:28:01.241Z,94080
2017-04-27T09:28:52.268Z,95200
2017-04-27T09:29:47.239Z,88352
2017-04-27T09:30:40.733Z,83488
2017-04-27T09:31:29.590Z,79328
2017-04-27T09:35:52.072Z,73120
2017-04-27T09:36:43.225Z,72000
2017-04-27T09:37:33.788Z,71648
2017-04-27T09:38:23.355Z,79264
2017-04-27T09:39:12.247Z,75488
2017-04-27T09:40:03.292Z,78752
2017-04-27T09:40:54.382Z,83424
2017-04-27T09:41:43.766Z,90880
2017-04-27T09:42:32.086Z,95488
2017-04-27T09:45:22.945Z,100416
2017-04-27T09:46:16.180Z,97568
2017-04-27T09:47:07.683Z,100608
2017-04-27T09:48:02.116Z,104416
2017-04-27T09:48:52.498Z,105696
2017-04-27T09:53:13.432Z,93376
2017-04-27T09:54:02.277Z,96384
2017-04-27T09:54:51.275Z,96480
2017-04-27T09:55:39.768Z,100480
2017-04-27T09:56:28.492Z,101376
2017-04-27T09:57:17.089Z,102336
2017-04-27T09:58:05.985Z,100864
2017-04-27T09:58:54.375Z,101088
2017-04-27T10:02:53.754Z,97888
2017-04-27T10:03:47.149Z,96160
2017-04-27T10:04:39.303Z,94720
2017-04-27T10:07:50.495Z,94048
2017-04-27T11:10:30.181Z,23680
2017-04-27T11:14:25.223Z,23744
2017-04-27T11:15:35.711Z,24192
2017-04-27T11:25:43.906Z,33216
2017-04-27T11:26:32.291Z,31360
2017-04-27T11:27:21.008Z,29056
2017-04-27T11:28:09.825Z,26944
2017-04-27T11:28:58.903Z,24992
2017-04-27T11:31:32.603Z,21984
2017-04-27T11:32:21.308Z,21408
2017-04-27T11:33:09.730Z,20928
2017-04-27T11:33:58.609Z,20576
2017-04-27T11:36:22.193Z,20576
2017-04-27T11:37:11.896Z,20736
2017-04-27T11:38:01.716Z,20960
2017-04-27T11:38:52.989Z,21216
2017-04-27T11:39:43.636Z,21280
2017-04-27T11:40:33.682Z,21280
2017-04-27T11:41:21.719Z,21312
2017-04-27T11:42:10.368Z,21152
2017-04-27T11:42:58.628Z,21248
2017-04-27T11:50:37.245Z,24768
2017-04-27T11:51:27.615Z,26144
2017-04-27T11:52:16.936Z,27808
2017-04-27T11:53:06.022Z,29344
2017-04-27T11:53:54.343Z,32896
2017-04-27T11:54:43.081Z,35392
2017-04-27T11:55:32.006Z,41472
2017-04-27T11:56:20.631Z,41600
2017-04-27T11:57:08.827Z,46080
2017-04-27T11:57:59.833Z,43584
2017-04-27T12:00:25.478Z,54752
2017-04-27T12:01:14.024Z,48192
2017-04-27T12:02:04.874Z,51264
2017-04-27T12:02:54.111Z,62944
2017-04-27T12:03:42.755Z,81664
2017-04-27T12:04:31.904Z,82112
2017-04-27T12:05:21.418Z,84928
2017-04-27T12:06:13.041Z,64736
2017-04-27T12:14:48.782Z,53856
2017-04-27T12:15:38.381Z,61408
2017-04-27T12:16:26.870Z,57856
2017-04-27T12:17:15.830Z,55840
2017-04-27T12:18:04.347Z,41984
2017-04-27T12:18:52.821Z,27552
2017-04-27T12:19:41.733Z,24992
2017-04-27T12:20:30.657Z,23168
2017-04-27T12:21:18.916Z,22752
2017-04-27T12:22:07.541Z,24672
2017-04-27T12:22:56.665Z,22336
2017-04-27T12:23:44.827Z,22496
2017-04-27T12:30:25.914Z,18464
2017-04-27T12:31:16.851Z,17952
2017-04-27T12:32:06.392Z,17856
2017-04-27T12:32:55.614Z,17856
2017-04-27T12:35:16.643Z,15692
2017-04-27T12:36:12.280Z,14196
2017-04-27T12:37:03.143Z,13484
2017-04-27T12:38:05.243Z,13248
2017-04-27T12:38:54.125Z,13192
2017-04-27T12:39:43.247Z,13044
2017-04-27T12:40:32.879Z,12684
2017-04-27T12:41:23.648Z,12244
2017-04-27T12:46:54.865Z,12604
2017-04-27T12:47:47.902Z,12900
2017-04-27T12:48:35.572Z,13140
2017-04-27T12:49:25.078Z,13372
2017-04-27T12:50:13.590Z,13628
2017-04-27T12:51:02.662Z,13964
2017-04-27T12:51:52.244Z,14392
2017-04-27T12:52:39.795Z,14904
2017-04-27T12:53:29.234Z,15064
2017-04-27T12:54:19.847Z,15124
2017-04-27T12:55:08.540Z,15392
2017-04-27T12:55:58.260Z,15816
2017-04-27T12:56:46.265Z,16384
2017-04-27T12:57:35.160Z,17184
2017-04-27T12:58:23.741Z,17984
2017-04-27T12:59:12.681Z,18848
2017-04-27T13:00:01.947Z,19680
2017-04-27T13:00:50.143Z,20512
2017-04-27T13:01:38.548Z,21440
2017-04-27T13:02:27.409Z,22464
2017-04-27T13:03:15.630Z,22752
2017-04-27T13:04:05.185Z,22912
2017-04-27T13:04:53.786Z,23072
2017-04-27T13:05:42.633Z,23200
2017-04-27T13:06:30.829Z,23488
2017-04-27T13:07:19.575Z,23968
2017-04-27T13:08:08.650Z,24320
2017-04-27T13:08:57.643Z,24864
2017-04-27T13:11:18.836Z,27104
2017-04-27T13:12:08.380Z,27456
2017-04-27T13:12:59.134Z,27328
2017-04-27T13:15:21.873Z,27264
2017-04-27T13:16:10.267Z,27232
2017-04-27T13:16:59.816Z,27104
2017-04-27T13:17:52.639Z,26976
2017-04-27T13:19:57.118Z,26368
2017-04-27T13:20:44.924Z,25920
2017-04-27T13:21:34.825Z,25408
2017-04-27T13:22:22.676Z,24832
2017-04-27T13:23:11.584Z,24576
2017-04-27T13:24:00.693Z,24192
2017-04-27T13:24:49.801Z,23584
2017-04-27T13:25:37.748Z,22752
2017-04-27T13:26:26.362Z,22240
2017-04-27T13:27:14.794Z,22112
2017-04-27T13:28:03.436Z,21568
2017-04-27T13:28:52.351Z,21472
2017-04-27T13:29:41.804Z,21280
2017-04-27T13:30:29.749Z,21344
2017-04-27T13:31:18.662Z,21568
2017-04-27T13:32:07.378Z,21760
2017-04-27T13:36:13.284Z,21600
2017-04-27T13:37:02.563Z,21216
2017-04-27T13:37:51.888Z,20480
2017-04-27T13:38:41.987Z,20192
2017-04-27T13:39:30.842Z,20256
2017-04-27T13:40:20.532Z,20448
2017-04-27T13:41:10.811Z,20352
2017-04-27T13:41:59.373Z,19968
2017-04-27T13:42:48.002Z,19520
2017-04-27T13:43:44.735Z,18912
2017-04-27T13:44:34.210Z,18372
2017-04-27T13:45:23.129Z,17940
2017-04-27T13:46:12.946Z,17452
2017-04-27T13:47:02.444Z,17016
2017-04-27T13:47:51.938Z,16624
2017-04-27T13:48:41.575Z,16216
2017-04-27T13:49:31.194Z,15824
2017-04-27T13:50:20.877Z,15396
2017-04-27T13:51:09.397Z,14988
2017-04-27T13:51:57.696Z,14600
2017-04-27T13:52:47.553Z,14220
2017-04-27T13:53:38.559Z,13896
2017-04-27T13:54:29.264Z,13648
2017-04-27T13:55:18.395Z,13336
2017-04-27T13:56:06.844Z,13120
2017-04-27T13:56:55.681Z,12932
2017-04-27T13:57:44.398Z,12800
2017-04-27T13:58:33.042Z,12720
2017-04-27T13:59:21.680Z,12664
2017-04-27T14:00:13.889Z,12756
2017-04-27T14:01:02.138Z,12988
2017-04-27T14:01:50.783Z,13236
2017-04-27T14:02:39.749Z,13492
2017-04-27T14:03:28.279Z,13780
2017-04-27T14:04:16.981Z,14180
2017-04-27T14:05:05.696Z,14836
2017-04-27T14:05:54.535Z,15876
2017-04-27T14:09:53.456Z,16768
2017-04-27T14:10:42.013Z,15796
2017-04-27T14:11:30.512Z,14944
2017-04-27T14:12:19.948Z,14960
2017-04-27T14:13:08.451Z,15068
2017-04-27T14:13:57.667Z,14644
2017-04-27T14:14:46.038Z,13912
2017-04-27T14:15:34.520Z,13068
2017-04-27T14:16:23.360Z,12196
2017-04-27T14:17:11.980Z,11848
2017-04-27T14:18:00.135Z,11276
2017-04-27T14:19:05.936Z,11548
2017-04-27T14:19:54.921Z,11892
2017-04-27T14:29:57.332Z,10824
2017-04-27T14:34:27.212Z,13184
2017-04-27T14:35:15.821Z,13852
2017-04-27T14:36:04.306Z,14708
2017-04-27T14:36:53.376Z,15408
2017-04-27T14:37:41.678Z,15716
2017-04-27T14:38:30.722Z,16280
2017-04-27T14:49:13.465Z,10808
2017-04-27T14:50:01.823Z,10364
2017-04-27T14:52:22.906Z,10352
2017-04-27T14:53:11.661Z,10596
2017-04-27T14:54:01.172Z,10696
2017-04-27T14:54:49.916Z,10540
2017-04-27T14:55:37.896Z,10436
2017-04-27T14:56:27.753Z,10408
2017-04-27T14:57:16.207Z,10332
2017-04-27T14:58:04.930Z,10144
2017-04-27T14:58:53.713Z,9952
2017-04-27T14:59:45.199Z,9696
2017-04-27T15:00:33.785Z,9436
2017-04-27T15:01:22.165Z,9208
2017-04-27T15:02:11.025Z,9156
2017-04-27T15:02:59.384Z,9304
2017-04-27T15:03:48.415Z,9496
2017-04-27T15:04:36.887Z,9588
2017-04-27T15:05:25.459Z,9520
2017-04-27T15:06:12.999Z,9320
2017-04-27T15:07:06.359Z,8988
2017-04-27T15:07:50.276Z,8672
2017-04-27T15:08:31.459Z,8576
2017-04-27T15:11:15.126Z,9020
2017-04-27T15:12:03.126Z,9040
2017-04-27T15:12:51.801Z,9032
2017-04-27T15:21:53.239Z,9224
2017-04-27T15:22:42.026Z,9392
2017-04-27T15:23:31.276Z,9388
2017-04-27T15:24:19.739Z,9344
2017-04-27T15:25:08.408Z,9312
2017-04-27T15:25:57.534Z,9336
2017-04-27T15:26:46.146Z,9300
2017-04-27T15:27:35.467Z,9200
2017-04-27T15:28:23.954Z,9104
2017-04-27T15:29:13.151Z,9012
2017-04-27T15:30:01.631Z,8896
2017-04-27T15:30:50.864Z,8728
2017-04-27T15:31:39.335Z,8604
2017-04-27T15:32:27.957Z,8472
2017-04-27T15:33:16.931Z,8364
2017-04-27T15:34:06.146Z,8280
2017-04-27T15:34:54.445Z,8248
2017-04-27T15:35:43.103Z,8256
2017-04-27T15:36:32.823Z,8252
2017-04-27T15:37:20.873Z,8244
2017-04-27T15:38:09.754Z,8232
2017-04-27T15:38:58.383Z,8204
2017-04-27T15:39:46.942Z,8156
2017-04-27T15:40:35.437Z,8132
2017-04-27T15:41:24.089Z,8152
2017-04-27T15:42:13.087Z,8232
2017-04-27T15:43:01.551Z,8288
2017-04-27T15:43:50.069Z,8004
2017-04-27T15:44:38.899Z,7476
2017-04-27T15:45:27.870Z,7264
2017-04-27T15:46:16.168Z,7232
2017-04-27T15:47:04.968Z,7336
2017-04-27T15:47:53.473Z,7884
2017-04-27T15:48:42.379Z,8508
2017-04-27T15:49:30.956Z,9292
2017-04-27T15:50:19.548Z,9808
2017-04-27T15:51:07.890Z,9788
2017-04-27T15:51:56.956Z,8848
2017-04-27T15:52:45.791Z,7992
2017-04-27T15:53:34.234Z,7636
2017-04-27T15:54:22.656Z,7572
2017-04-27T15:55:11.451Z,7604
2017-04-27T15:56:02.289Z,7684
2017-04-27T15:56:49.966Z,7700
2017-04-27T15:57:38.624Z,7600
2017-04-27T15:58:27.604Z,7412
2017-04-27T15:59:10.891Z,7288
2017-04-27T15:59:52.491Z,6976
2017-04-27T16:00:33.783Z,6608
2017-04-27T16:01:15.401Z,6544
2017-04-27T16:01:55.987Z,6336
2017-04-27T16:02:36.318Z,6148
2017-04-27T16:03:20.761Z,6040
2017-04-27T16:04:01.578Z,6144
2017-04-27T16:04:45.330Z,6140
2017-04-27T16:05:25.886Z,6172
2017-04-27T16:06:07.508Z,6052
2017-04-27T16:06:47.897Z,5864
2017-04-27T16:07:29.623Z,5780
2017-04-27T16:08:12.831Z,5488
2017-04-27T16:08:59.438Z,5472
2017-04-27T16:11:29.499Z,5692
2017-04-27T16:12:18.095Z,5804
2017-04-27T16:13:07.531Z,5888
2017-04-27T16:13:56.864Z,5812
2017-04-27T16:14:45.544Z,5624
2017-04-27T16:15:34.037Z,5308
2017-04-27T16:16:23.071Z,5300
2017-04-27T16:20:50.405Z,5308
2017-04-27T16:21:40.750Z,5492
2017-04-27T16:23:07.870Z,5584
2017-04-27T16:24:04.501Z,5444
2017-04-27T16:24:59.526Z,5432
2017-04-27T16:25:49.766Z,5452
2017-04-27T16:26:40.006Z,5460
2017-04-27T16:30:38.865Z,5192
2017-04-27T16:31:34.087Z,5024
2017-04-27T16:32:41.064Z,4988
2017-04-27T16:33:37.634Z,5108
2017-04-27T16:36:03.750Z,5296
2017-04-27T16:36:52.359Z,5360
2017-04-27T16:37:43.432Z,5404
2017-04-27T16:38:32.237Z,5404
2017-04-27T16:39:20.692Z,5412
2017-04-27T16:40:14.538Z,5380
2017-04-27T16:41:04.400Z,5336
2017-04-27T16:41:56.593Z,5256
2017-04-27T16:42:42.442Z,5172
2017-04-27T16:43:31.038Z,5068
2017-04-27T16:44:20.088Z,4988
2017-04-27T16:45:09.724Z,4932
2017-04-27T17:03:23.468Z,3800
2017-04-27T17:09:04.582Z,3284
2017-04-27T17:09:53.157Z,3276
2017-04-27T17:14:16.149Z,3324
2017-04-27T17:15:04.999Z,3304
2017-04-27T17:15:53.353Z,3276
2017-04-27T17:16:41.838Z,3260
2017-04-27T17:22:34.262Z,2860
2017-04-27T17:23:23.303Z,2800
2017-04-27T17:27:38.854Z,2512
2017-04-27T17:28:27.424Z,2496
2017-04-27T17:29:16.028Z,2476
2017-04-27T17:30:08.364Z,2484
2017-04-27T17:30:56.668Z,2456
2017-04-27T17:31:45.697Z,2432
2017-04-27T17:32:33.978Z,2428
2017-04-27T17:33:23.431Z,2432
2017-04-27T17:34:11.401Z,2456
2017-04-27T17:36:54.157Z,2408
2017-04-27T17:37:42.916Z,2348
2017-04-27T17:47:40.160Z,1808
2017-04-27T18:01:51.770Z,1216
2017-04-27T18:02:49.958Z,1192
2017-04-27T18:03:38.428Z,1180
2017-04-27T18:04:42.890Z,1168
2017-04-27T18:05:31.700Z,1140
2017-04-27T18:06:20.596Z,1112
2017-04-27T18:07:09.171Z,1076
2017-04-27T18:07:57.438Z,1032
2017-04-27T18:08:52.634Z,988
2017-04-27T18:09:42.695Z,964
2017-04-27T18:10:30.959Z,944
2017-04-27T18:11:20.083Z,920
2017-04-27T18:12:08.343Z,900
2017-04-27T18:12:57.291Z,892
2017-04-27T18:13:46.638Z,896
2017-04-27T18:14:37.309Z,912
2017-04-27T18:15:25.958Z,928
2017-04-27T18:19:33.135Z,856
2017-04-27T18:20:24.532Z,788
2017-04-27T18:21:11.591Z,716
2017-04-27T18:22:01.612Z,648
2017-04-27T18:23:10.130Z,564
2017-04-27T18:24:01.158Z,512
2017-04-27T18:24:49.276Z,480
2017-04-27T18:25:38.585Z,456
2017-04-27T18:26:27.316Z,440
2017-04-27T18:27:16.446Z,420
2017-04-27T18:28:06.414Z,396
2017-04-27T18:28:55.900Z,368
2017-04-27T18:29:46.807Z,332
2017-04-27T18:30:34.322Z,296
2017-04-27T18:31:26.278Z,260
2017-04-27T18:32:15.597Z,236
2017-04-27T18:33:06.296Z,212
2017-04-27T18:33:55.233Z,192
2017-04-27T18:34:44.753Z,180
2017-04-27T18:35:33.433Z,164
2017-04-27T18:36:22.079Z,148
2017-04-27T18:37:10.407Z,136
2017-04-27T18:38:05.714Z,124
2017-04-27T18:38:55.557Z,116
2017-04-27T18:54:43.421Z,12
2017-04-27T18:55:32.346Z,16
2017-04-27T18:56:21.118Z,12
2017-04-27T18:57:12.909Z,12
2017-04-27T18:58:13.042Z,8
2017-04-27T18:59:02.586Z,8
2017-04-27T18:59:51.963Z,8
2017-04-27T19:00:46.457Z,4
2017-04-27T19:01:34.998Z,4
2017-04-27T19:02:41.143Z,4
2017-04-27T19:03:29.883Z,4
2017-04-27T19:04:20.591Z,4
2017-04-27T19:05:09.224Z,0
2017-04-27T19:06:02.091Z,0
2017-04-27T19:06:50.999Z,4
2017-04-27T19:07:42.910Z,4
2017-04-27T19:08:32.793Z,0
2017-04-27T19:09:23.614Z,0
2017-04-27T19:10:13.827Z,0
2017-04-27T19:11:06.124Z,0
2017-04-27T19:11:55.928Z,0
2017-04-27T19:14:20.781Z,0
2017-04-27T19:15:13.048Z,0
2017-04-27T19:16:01.046Z,0
2017-04-27T19:16:49.662Z,0
2017-04-27T19:17:38.400Z,0
2017-04-27T19:18:27.322Z,0
2017-04-27T19:19:15.940Z,0
2017-04-27T19:20:04.770Z,0
2017-04-27T19:27:52.868Z,0
2017-04-27T19:32:09.334Z,0
2017-04-27T19:32:58.225Z,0
2017-04-27T19:36:56.339Z,0
2017-04-27T19:37:45.800Z,0
2017-04-27T19:38:35.354Z,0
2017-04-27T19:39:32.348Z,0
2017-04-27T19:40:26.710Z,0
2017-04-27T19:41:19.219Z,0
2017-04-27T19:45:47.965Z,0
2017-04-27T19:56:59.568Z,0
2017-04-27T19:57:47.223Z,0
2017-04-27T19:58:36.632Z,0
2017-04-27T20:01:16.466Z,0
2017-04-27T20:02:05.210Z,0
2017-04-27T20:06:23.270Z,0
2017-04-27T20:12:39.091Z,0
2017-04-27T20:13:27.871Z,0
2017-04-27T20:24:13.194Z,0
2017-04-27T20:31:13.523Z,0
2017-04-27T20:32:05.203Z,0
2017-04-27T21:13:28.297Z,0
2017-04-27T21:14:16.936Z,0
2017-04-27T21:15:08.883Z,0
2017-04-27T21:15:56.749Z,0
2017-04-27T21:16:45.013Z,0
2017-04-27T21:39:40.831Z,0
2017-04-27T21:42:53.806Z,0
2017-04-27T21:43:46.308Z,0
2017-04-27T21:51:23.980Z,0
2017-04-27T21:52:16.190Z,0
2017-04-27T21:53:11.697Z,0
2017-04-27T21:54:01.081Z,0
2017-04-27T21:54:54.135Z,0
2017-04-27T22:02:31.161Z,0
2017-04-27T22:03:19.566Z,0
2017-04-27T22:04:08.485Z,0
2017-04-27T22:04:56.628Z,0
2017-04-27T22:05:45.604Z,0
2017-04-27T22:51:09.915Z,0
2017-04-27T22:51:58.259Z,0
2017-04-27T22:52:47.194Z,0
2017-04-27T22:53:35.527Z,0
2017-04-27T22:54:24.258Z,0
2017-04-27T22:55:12.911Z,0
2017-04-27T22:56:01.477Z,0
2017-04-27T22:56:51.481Z,0
2017-04-27T23:12:38.959Z,0
2017-04-27T23:13:27.026Z,0
2017-04-27T23:17:25.530Z,0